sensor_id;sensor_type;location;lat;lon;timestamp;P1;durP1;ratioP1;P2;durP2;ratioP2
17596;SDS011;8917;50.942;6.946;2022-11-15T00:02:24;6.27;;;5.67;;
17596;SDS011;8917;50.942;6.946;2022-11-15T00:04:52;9.20;;;6.00;;
17596;SDS011;8917;50.942;6.946;2022-11-15T00:07:19;7.13;;;5.90;;
17596;SDS011;8917;50.942;6.946;2022-11-15T00:09:46;5.93;;;5.13;;
17596;SDS011;8917;50.942;6.946;2022-11-15T00:12:15;6.87;;;5.33;;
17596;SDS011;8917;50.942;6.946;2022-11-15T00:14:42;6.60;;;5.47;;
17596;SDS011;8917;50.942;6.946;2022-11-15T00:17:10;6.83;;;5.70;;
17596;SDS011;8917;50.942;6.946;2022-11-15T00:19:37;8.53;;;6.27;;
17596;SDS011;8917;50.942;6.946;2022-11-15T00:22:05;6.63;;;5.50;;
17596;SDS011;8917;50.942;6.946;2022-11-15T00:24:32;5.83;;;5.23;;
17596;SDS011;8917;50.942;6.946;2022-11-15T00:26:59;8.27;;;5.70;;
17596;SDS011;8917;50.942;6.946;2022-11-15T00:29:28;6.27;;;5.50;;
17596;SDS011;8917;50.942;6.946;2022-11-15T00:31:56;7.37;;;5.27;;
17596;SDS011;8917;50.942;6.946;2022-11-15T00:34:23;6.37;;;5.50;;
17596;SDS011;8917;50.942;6.946;2022-11-15T00:36:50;6.63;;;5.47;;
17596;SDS011;8917;50.942;6.946;2022-11-15T00:39:18;6.80;;;5.43;;
17596;SDS011;8917;50.942;6.946;2022-11-15T00:41:45;6.17;;;5.40;;
17596;SDS011;8917;50.942;6.946;2022-11-15T00:44:12;7.70;;;5.20;;
17596;SDS011;8917;50.942;6.946;2022-11-15T00:46:41;6.47;;;5.40;;
17596;SDS011;8917;50.942;6.946;2022-11-15T00:49:08;6.13;;;5.33;;
17596;SDS011;8917;50.942;6.946;2022-11-15T00:51:36;8.83;;;5.60;;
17596;SDS011;8917;50.942;6.946;2022-11-15T00:54:03;5.90;;;5.20;;
17596;SDS011;8917;50.942;6.946;2022-11-15T00:56:30;8.97;;;5.87;;
17596;SDS011;8917;50.942;6.946;2022-11-15T00:58:58;7.70;;;5.33;;
17596;SDS011;8917;50.942;6.946;2022-11-15T01:01:25;6.37;;;5.73;;
17596;SDS011;8917;50.942;6.946;2022-11-15T01:03:54;9.13;;;6.17;;
17596;SDS011;8917;50.942;6.946;2022-11-15T01:06:22;7.27;;;5.77;;
17596;SDS011;8917;50.942;6.946;2022-11-15T01:08:49;7.67;;;5.47;;
17596;SDS011;8917;50.942;6.946;2022-11-15T01:11:16;6.90;;;5.67;;
17596;SDS011;8917;50.942;6.946;2022-11-15T01:13:43;9.13;;;5.67;;
17596;SDS011;8917;50.942;6.946;2022-11-15T01:16:12;7.00;;;5.70;;
17596;SDS011;8917;50.942;6.946;2022-11-15T01:18:40;5.97;;;5.30;;
17596;SDS011;8917;50.942;6.946;2022-11-15T01:21:09;6.57;;;5.57;;
17596;SDS011;8917;50.942;6.946;2022-11-15T01:23:37;7.57;;;5.67;;
17596;SDS011;8917;50.942;6.946;2022-11-15T01:26:05;7.10;;;5.73;;
17596;SDS011;8917;50.942;6.946;2022-11-15T01:28:33;7.23;;;5.77;;
17596;SDS011;8917;50.942;6.946;2022-11-15T01:31:02;7.27;;;5.30;;
17596;SDS011;8917;50.942;6.946;2022-11-15T01:33:30;7.60;;;5.87;;
17596;SDS011;8917;50.942;6.946;2022-11-15T01:35:57;8.50;;;5.50;;
17596;SDS011;8917;50.942;6.946;2022-11-15T01:38:26;7.73;;;5.80;;
17596;SDS011;8917;50.942;6.946;2022-11-15T01:40:54;8.97;;;5.90;;
17596;SDS011;8917;50.942;6.946;2022-11-15T01:43:22;8.37;;;5.97;;
17596;SDS011;8917;50.942;6.946;2022-11-15T01:45:50;10.90;;;6.60;;
17596;SDS011;8917;50.942;6.946;2022-11-15T01:48:20;9.90;;;6.23;;
17596;SDS011;8917;50.942;6.946;2022-11-15T01:50:47;7.13;;;5.50;;
17596;SDS011;8917;50.942;6.946;2022-11-15T01:53:16;8.53;;;5.90;;
17596;SDS011;8917;50.942;6.946;2022-11-15T01:55:45;6.57;;;5.70;;
17596;SDS011;8917;50.942;6.946;2022-11-15T01:58:13;7.53;;;6.20;;
17596;SDS011;8917;50.942;6.946;2022-11-15T02:00:40;8.23;;;6.00;;
17596;SDS011;8917;50.942;6.946;2022-11-15T02:03:07;6.80;;;5.97;;
17596;SDS011;8917;50.942;6.946;2022-11-15T02:05:35;6.80;;;5.83;;
17596;SDS011;8917;50.942;6.946;2022-11-15T02:08:03;7.23;;;5.93;;
17596;SDS011;8917;50.942;6.946;2022-11-15T02:10:30;8.57;;;6.10;;
17596;SDS011;8917;50.942;6.946;2022-11-15T02:12:59;10.17;;;6.47;;
17596;SDS011;8917;50.942;6.946;2022-11-15T02:15:30;10.63;;;6.57;;
17596;SDS011;8917;50.942;6.946;2022-11-15T02:18:03;8.13;;;6.30;;
17596;SDS011;8917;50.942;6.946;2022-11-15T02:20:40;7.13;;;6.13;;
17596;SDS011;8917;50.942;6.946;2022-11-15T02:23:23;7.20;;;6.30;;
17596;SDS011;8917;50.942;6.946;2022-11-15T02:25:57;11.70;;;6.30;;
17596;SDS011;8917;50.942;6.946;2022-11-15T02:28:50;7.83;;;6.30;;
17596;SDS011;8917;50.942;6.946;2022-11-15T02:31:22;6.60;;;5.50;;
17596;SDS011;8917;50.942;6.946;2022-11-15T02:33:54;7.10;;;5.67;;
17596;SDS011;8917;50.942;6.946;2022-11-15T02:36:29;10.07;;;6.27;;
17596;SDS011;8917;50.942;6.946;2022-11-15T02:39:02;7.20;;;5.83;;
17596;SDS011;8917;50.942;6.946;2022-11-15T02:41:34;6.47;;;5.53;;
17596;SDS011;8917;50.942;6.946;2022-11-15T02:44:04;7.60;;;6.67;;
17596;SDS011;8917;50.942;6.946;2022-11-15T02:46:35;8.17;;;5.77;;
17596;SDS011;8917;50.942;6.946;2022-11-15T02:49:21;5.93;;;5.33;;
17596;SDS011;8917;50.942;6.946;2022-11-15T02:51:49;9.33;;;5.97;;
17596;SDS011;8917;50.942;6.946;2022-11-15T02:54:19;7.30;;;5.37;;
17596;SDS011;8917;50.942;6.946;2022-11-15T02:56:47;6.77;;;5.23;;
17596;SDS011;8917;50.942;6.946;2022-11-15T02:59:22;6.33;;;5.73;;
17596;SDS011;8917;50.942;6.946;2022-11-15T03:01:56;6.63;;;5.70;;
17596;SDS011;8917;50.942;6.946;2022-11-15T03:04:29;6.03;;;5.37;;
17596;SDS011;8917;50.942;6.946;2022-11-15T03:07:02;7.47;;;6.07;;
17596;SDS011;8917;50.942;6.946;2022-11-15T03:09:33;8.23;;;5.50;;
17596;SDS011;8917;50.942;6.946;2022-11-15T03:12:03;6.00;;;4.97;;
17596;SDS011;8917;50.942;6.946;2022-11-15T03:14:34;7.13;;;5.07;;
17596;SDS011;8917;50.942;6.946;2022-11-15T03:17:05;5.27;;;4.73;;
17596;SDS011;8917;50.942;6.946;2022-11-15T03:19:38;7.63;;;5.37;;
17596;SDS011;8917;50.942;6.946;2022-11-15T03:22:08;6.67;;;5.63;;
17596;SDS011;8917;50.942;6.946;2022-11-15T03:24:37;8.13;;;5.27;;
17596;SDS011;8917;50.942;6.946;2022-11-15T03:27:05;6.33;;;5.33;;
17596;SDS011;8917;50.942;6.946;2022-11-15T03:29:34;7.37;;;5.20;;
17596;SDS011;8917;50.942;6.946;2022-11-15T03:32:05;5.97;;;4.57;;
17596;SDS011;8917;50.942;6.946;2022-11-15T03:34:36;5.70;;;4.80;;
17596;SDS011;8917;50.942;6.946;2022-11-15T03:37:04;6.20;;;4.60;;
17596;SDS011;8917;50.942;6.946;2022-11-15T03:39:32;5.70;;;4.90;;
17596;SDS011;8917;50.942;6.946;2022-11-15T03:42:04;5.73;;;4.63;;
17596;SDS011;8917;50.942;6.946;2022-11-15T03:44:36;7.90;;;4.83;;
17596;SDS011;8917;50.942;6.946;2022-11-15T03:47:08;5.60;;;4.43;;
17596;SDS011;8917;50.942;6.946;2022-11-15T03:49:37;6.13;;;4.50;;
17596;SDS011;8917;50.942;6.946;2022-11-15T03:52:06;6.23;;;5.40;;
17596;SDS011;8917;50.942;6.946;2022-11-15T03:54:33;6.87;;;5.27;;
17596;SDS011;8917;50.942;6.946;2022-11-15T03:57:01;7.77;;;5.50;;
17596;SDS011;8917;50.942;6.946;2022-11-15T03:59:28;6.13;;;5.00;;
17596;SDS011;8917;50.942;6.946;2022-11-15T04:01:55;5.40;;;4.90;;
17596;SDS011;8917;50.942;6.946;2022-11-15T04:04:24;5.80;;;5.03;;
17596;SDS011;8917;50.942;6.946;2022-11-15T04:06:51;6.20;;;4.90;;
17596;SDS011;8917;50.942;6.946;2022-11-15T04:09:19;6.00;;;5.40;;
17596;SDS011;8917;50.942;6.946;2022-11-15T04:11:46;17.37;;;11.90;;
17596;SDS011;8917;50.942;6.946;2022-11-15T04:14:13;5.93;;;5.40;;
17596;SDS011;8917;50.942;6.946;2022-11-15T04:16:41;6.27;;;5.33;;
17596;SDS011;8917;50.942;6.946;2022-11-15T04:19:08;5.73;;;5.20;;
17596;SDS011;8917;50.942;6.946;2022-11-15T04:21:54;6.10;;;4.93;;
17596;SDS011;8917;50.942;6.946;2022-11-15T04:24:39;7.33;;;5.60;;
17596;SDS011;8917;50.942;6.946;2022-11-15T04:27:06;6.73;;;5.20;;
17596;SDS011;8917;50.942;6.946;2022-11-15T04:29:34;5.70;;;4.93;;
17596;SDS011;8917;50.942;6.946;2022-11-15T04:32:01;5.20;;;4.70;;
17596;SDS011;8917;50.942;6.946;2022-11-15T04:34:29;5.77;;;5.00;;
17596;SDS011;8917;50.942;6.946;2022-11-15T04:36:58;5.97;;;5.47;;
17596;SDS011;8917;50.942;6.946;2022-11-15T04:39:41;7.53;;;5.17;;
17596;SDS011;8917;50.942;6.946;2022-11-15T04:42:09;5.30;;;4.80;;
17596;SDS011;8917;50.942;6.946;2022-11-15T04:44:36;5.73;;;5.13;;
17596;SDS011;8917;50.942;6.946;2022-11-15T04:47:04;6.23;;;5.10;;
17596;SDS011;8917;50.942;6.946;2022-11-15T04:49:31;5.97;;;5.23;;
17596;SDS011;8917;50.942;6.946;2022-11-15T04:52:00;5.97;;;5.27;;
17596;SDS011;8917;50.942;6.946;2022-11-15T04:54:27;6.73;;;5.07;;
17596;SDS011;8917;50.942;6.946;2022-11-15T04:56:55;5.93;;;4.50;;
17596;SDS011;8917;50.942;6.946;2022-11-15T04:59:22;6.47;;;4.93;;
17596;SDS011;8917;50.942;6.946;2022-11-15T05:01:50;6.03;;;5.27;;
17596;SDS011;8917;50.942;6.946;2022-11-15T05:04:17;6.53;;;4.80;;
17596;SDS011;8917;50.942;6.946;2022-11-15T05:06:50;5.40;;;4.90;;
17596;SDS011;8917;50.942;6.946;2022-11-15T05:09:19;5.10;;;4.60;;
17596;SDS011;8917;50.942;6.946;2022-11-15T05:11:46;4.90;;;4.50;;
17596;SDS011;8917;50.942;6.946;2022-11-15T05:14:14;5.97;;;4.60;;
17596;SDS011;8917;50.942;6.946;2022-11-15T05:16:41;5.67;;;4.43;;
17596;SDS011;8917;50.942;6.946;2022-11-15T05:19:09;5.17;;;4.40;;
17596;SDS011;8917;50.942;6.946;2022-11-15T05:21:36;6.13;;;4.53;;
17596;SDS011;8917;50.942;6.946;2022-11-15T05:24:04;4.97;;;4.47;;
17596;SDS011;8917;50.942;6.946;2022-11-15T05:26:33;5.07;;;4.43;;
17596;SDS011;8917;50.942;6.946;2022-11-15T05:29:00;6.67;;;4.60;;
17596;SDS011;8917;50.942;6.946;2022-11-15T05:31:28;4.87;;;4.37;;
17596;SDS011;8917;50.942;6.946;2022-11-15T05:33:55;5.70;;;4.67;;
17596;SDS011;8917;50.942;6.946;2022-11-15T05:36:25;5.63;;;5.13;;
17596;SDS011;8917;50.942;6.946;2022-11-15T05:38:54;5.00;;;4.50;;
17596;SDS011;8917;50.942;6.946;2022-11-15T05:41:22;4.97;;;4.43;;
17596;SDS011;8917;50.942;6.946;2022-11-15T05:43:52;4.40;;;4.00;;
17596;SDS011;8917;50.942;6.946;2022-11-15T05:46:21;4.63;;;4.23;;
17596;SDS011;8917;50.942;6.946;2022-11-15T05:48:49;4.80;;;4.17;;
17596;SDS011;8917;50.942;6.946;2022-11-15T05:51:17;4.33;;;3.93;;
17596;SDS011;8917;50.942;6.946;2022-11-15T05:53:46;5.73;;;4.57;;
17596;SDS011;8917;50.942;6.946;2022-11-15T05:56:13;4.93;;;3.97;;
17596;SDS011;8917;50.942;6.946;2022-11-15T05:58:41;4.70;;;4.10;;
17596;SDS011;8917;50.942;6.946;2022-11-15T06:01:10;4.47;;;4.07;;
17596;SDS011;8917;50.942;6.946;2022-11-15T06:03:37;4.63;;;4.23;;
17596;SDS011;8917;50.942;6.946;2022-11-15T06:06:05;6.07;;;4.47;;
17596;SDS011;8917;50.942;6.946;2022-11-15T06:08:32;5.67;;;4.30;;
17596;SDS011;8917;50.942;6.946;2022-11-15T06:11:03;5.10;;;4.10;;
17596;SDS011;8917;50.942;6.946;2022-11-15T06:13:31;4.43;;;3.63;;
17596;SDS011;8917;50.942;6.946;2022-11-15T06:15:58;4.87;;;3.93;;
17596;SDS011;8917;50.942;6.946;2022-11-15T06:18:27;4.20;;;3.77;;
17596;SDS011;8917;50.942;6.946;2022-11-15T06:20:58;3.93;;;3.53;;
17596;SDS011;8917;50.942;6.946;2022-11-15T06:23:25;3.80;;;3.43;;
17596;SDS011;8917;50.942;6.946;2022-11-15T06:25:53;4.17;;;3.77;;
17596;SDS011;8917;50.942;6.946;2022-11-15T06:28:20;4.20;;;3.80;;
17596;SDS011;8917;50.942;6.946;2022-11-15T06:30:48;4.07;;;3.37;;
17596;SDS011;8917;50.942;6.946;2022-11-15T06:33:15;3.87;;;3.47;;
17596;SDS011;8917;50.942;6.946;2022-11-15T06:35:44;5.70;;;3.77;;
17596;SDS011;8917;50.942;6.946;2022-11-15T06:38:13;3.63;;;3.20;;
17596;SDS011;8917;50.942;6.946;2022-11-15T06:40:40;4.40;;;3.43;;
17596;SDS011;8917;50.942;6.946;2022-11-15T06:43:08;4.57;;;3.30;;
17596;SDS011;8917;50.942;6.946;2022-11-15T06:45:35;3.10;;;2.80;;
17596;SDS011;8917;50.942;6.946;2022-11-15T06:48:03;3.70;;;3.40;;
17596;SDS011;8917;50.942;6.946;2022-11-15T06:50:30;6.90;;;6.10;;
17596;SDS011;8917;50.942;6.946;2022-11-15T06:53:01;4.20;;;3.40;;
17596;SDS011;8917;50.942;6.946;2022-11-15T06:55:29;5.03;;;3.23;;
17596;SDS011;8917;50.942;6.946;2022-11-15T06:57:56;3.57;;;2.93;;
17596;SDS011;8917;50.942;6.946;2022-11-15T07:00:24;3.63;;;3.23;;
17596;SDS011;8917;50.942;6.946;2022-11-15T07:02:51;5.50;;;3.67;;
17596;SDS011;8917;50.942;6.946;2022-11-15T07:05:18;4.97;;;3.47;;
17596;SDS011;8917;50.942;6.946;2022-11-15T07:07:50;3.43;;;2.90;;
17596;SDS011;8917;50.942;6.946;2022-11-15T07:10:20;3.30;;;3.00;;
17596;SDS011;8917;50.942;6.946;2022-11-15T07:12:49;3.33;;;3.00;;
17596;SDS011;8917;50.942;6.946;2022-11-15T07:15:17;3.30;;;3.00;;
17596;SDS011;8917;50.942;6.946;2022-11-15T07:17:44;4.23;;;3.10;;
17596;SDS011;8917;50.942;6.946;2022-11-15T07:20:12;4.97;;;3.20;;
17596;SDS011;8917;50.942;6.946;2022-11-15T07:22:40;6.10;;;3.00;;
17596;SDS011;8917;50.942;6.946;2022-11-15T07:25:07;3.57;;;3.13;;
17596;SDS011;8917;50.942;6.946;2022-11-15T07:27:36;3.70;;;3.00;;
17596;SDS011;8917;50.942;6.946;2022-11-15T07:30:04;4.13;;;2.80;;
17596;SDS011;8917;50.942;6.946;2022-11-15T07:32:32;4.30;;;3.40;;
17596;SDS011;8917;50.942;6.946;2022-11-15T07:34:59;7.27;;;3.80;;
17596;SDS011;8917;50.942;6.946;2022-11-15T07:37:26;3.00;;;2.70;;
17596;SDS011;8917;50.942;6.946;2022-11-15T07:39:54;5.33;;;3.10;;
17596;SDS011;8917;50.942;6.946;2022-11-15T07:42:21;3.20;;;2.90;;
17596;SDS011;8917;50.942;6.946;2022-11-15T07:45:08;3.00;;;2.60;;
17596;SDS011;8917;50.942;6.946;2022-11-15T07:47:35;2.80;;;2.60;;
17596;SDS011;8917;50.942;6.946;2022-11-15T07:50:03;2.57;;;2.30;;
17596;SDS011;8917;50.942;6.946;2022-11-15T07:52:30;3.30;;;2.90;;
17596;SDS011;8917;50.942;6.946;2022-11-15T07:54:57;4.27;;;2.83;;
17596;SDS011;8917;50.942;6.946;2022-11-15T07:57:25;3.03;;;2.73;;
17596;SDS011;8917;50.942;6.946;2022-11-15T07:59:52;3.40;;;2.50;;
17596;SDS011;8917;50.942;6.946;2022-11-15T08:02:21;3.27;;;2.40;;
17596;SDS011;8917;50.942;6.946;2022-11-15T08:04:48;2.80;;;2.30;;
17596;SDS011;8917;50.942;6.946;2022-11-15T08:07:16;3.17;;;2.30;;
17596;SDS011;8917;50.942;6.946;2022-11-15T08:09:43;4.00;;;2.40;;
17596;SDS011;8917;50.942;6.946;2022-11-15T08:12:10;4.23;;;2.50;;
17596;SDS011;8917;50.942;6.946;2022-11-15T08:14:38;2.80;;;2.00;;
17596;SDS011;8917;50.942;6.946;2022-11-15T08:17:05;3.77;;;2.33;;
17596;SDS011;8917;50.942;6.946;2022-11-15T08:19:34;4.70;;;2.30;;
17596;SDS011;8917;50.942;6.946;2022-11-15T08:22:01;4.00;;;2.27;;
17596;SDS011;8917;50.942;6.946;2022-11-15T08:24:28;3.47;;;2.50;;
17596;SDS011;8917;50.942;6.946;2022-11-15T08:26:56;3.70;;;2.17;;
17596;SDS011;8917;50.942;6.946;2022-11-15T08:29:23;7.53;;;3.63;;
17596;SDS011;8917;50.942;6.946;2022-11-15T08:31:51;3.67;;;2.50;;
17596;SDS011;8917;50.942;6.946;2022-11-15T08:34:21;3.10;;;1.80;;
17596;SDS011;8917;50.942;6.946;2022-11-15T08:36:50;2.67;;;2.10;;
17596;SDS011;8917;50.942;6.946;2022-11-15T08:39:17;5.83;;;2.20;;
17596;SDS011;8917;50.942;6.946;2022-11-15T08:41:44;2.20;;;1.80;;
17596;SDS011;8917;50.942;6.946;2022-11-15T08:44:12;1.80;;;1.70;;
17596;SDS011;8917;50.942;6.946;2022-11-15T08:46:39;2.83;;;1.90;;
17596;SDS011;8917;50.942;6.946;2022-11-15T08:49:07;5.23;;;2.00;;
17596;SDS011;8917;50.942;6.946;2022-11-15T08:51:34;4.20;;;2.30;;
17596;SDS011;8917;50.942;6.946;2022-11-15T08:54:03;2.40;;;1.83;;
17596;SDS011;8917;50.942;6.946;2022-11-15T08:56:30;28.10;;;3.77;;
17596;SDS011;8917;50.942;6.946;2022-11-15T08:58:57;4.33;;;2.30;;
17596;SDS011;8917;50.942;6.946;2022-11-15T09:01:25;3.27;;;2.33;;
17596;SDS011;8917;50.942;6.946;2022-11-15T09:03:52;2.80;;;2.50;;
17596;SDS011;8917;50.942;6.946;2022-11-15T09:06:19;4.53;;;2.20;;
17596;SDS011;8917;50.942;6.946;2022-11-15T09:08:47;2.93;;;1.93;;
17596;SDS011;8917;50.942;6.946;2022-11-15T09:11:16;3.10;;;1.87;;
17596;SDS011;8917;50.942;6.946;2022-11-15T09:13:45;4.07;;;1.77;;
17596;SDS011;8917;50.942;6.946;2022-11-15T09:16:12;3.10;;;1.93;;
17596;SDS011;8917;50.942;6.946;2022-11-15T09:18:40;2.60;;;1.90;;
17596;SDS011;8917;50.942;6.946;2022-11-15T09:21:07;2.60;;;1.70;;
17596;SDS011;8917;50.942;6.946;2022-11-15T09:23:35;1.60;;;1.50;;
17596;SDS011;8917;50.942;6.946;2022-11-15T09:26:03;2.37;;;1.50;;
17596;SDS011;8917;50.942;6.946;2022-11-15T09:28:32;2.80;;;2.10;;
17596;SDS011;8917;50.942;6.946;2022-11-15T09:31:04;4.73;;;2.50;;
17596;SDS011;8917;50.942;6.946;2022-11-15T09:33:31;2.33;;;1.83;;
17596;SDS011;8917;50.942;6.946;2022-11-15T09:35:59;2.27;;;2.07;;
17596;SDS011;8917;50.942;6.946;2022-11-15T09:38:27;3.50;;;2.10;;
17596;SDS011;8917;50.942;6.946;2022-11-15T09:40:58;4.07;;;2.10;;
17596;SDS011;8917;50.942;6.946;2022-11-15T09:43:35;2.67;;;1.90;;
17596;SDS011;8917;50.942;6.946;2022-11-15T09:46:09;2.27;;;1.73;;
17596;SDS011;8917;50.942;6.946;2022-11-15T09:48:48;4.97;;;1.60;;
17596;SDS011;8917;50.942;6.946;2022-11-15T09:51:19;1.73;;;1.40;;
17596;SDS011;8917;50.942;6.946;2022-11-15T09:53:49;1.50;;;1.30;;
17596;SDS011;8917;50.942;6.946;2022-11-15T09:56:18;2.00;;;1.80;;
17596;SDS011;8917;50.942;6.946;2022-11-15T09:58:49;1.47;;;1.30;;
17596;SDS011;8917;50.942;6.946;2022-11-15T10:01:19;2.63;;;1.67;;
17596;SDS011;8917;50.942;6.946;2022-11-15T10:03:52;2.40;;;1.53;;
17596;SDS011;8917;50.942;6.946;2022-11-15T10:06:25;1.93;;;1.37;;
17596;SDS011;8917;50.942;6.946;2022-11-15T10:08:55;2.80;;;1.60;;
17596;SDS011;8917;50.942;6.946;2022-11-15T10:11:27;1.43;;;1.33;;
17596;SDS011;8917;50.942;6.946;2022-11-15T10:13:57;4.20;;;1.70;;
17596;SDS011;8917;50.942;6.946;2022-11-15T10:16:30;2.53;;;1.40;;
17596;SDS011;8917;50.942;6.946;2022-11-15T10:19:03;3.33;;;1.43;;
17596;SDS011;8917;50.942;6.946;2022-11-15T10:21:34;3.50;;;1.70;;
17596;SDS011;8917;50.942;6.946;2022-11-15T10:24:16;1.40;;;1.30;;
17596;SDS011;8917;50.942;6.946;2022-11-15T10:26:45;1.70;;;1.30;;
17596;SDS011;8917;50.942;6.946;2022-11-15T10:29:18;3.90;;;1.40;;
17596;SDS011;8917;50.942;6.946;2022-11-15T10:31:46;3.10;;;1.17;;
17596;SDS011;8917;50.942;6.946;2022-11-15T10:34:14;6.87;;;1.30;;
17596;SDS011;8917;50.942;6.946;2022-11-15T10:36:44;3.20;;;1.20;;
17596;SDS011;8917;50.942;6.946;2022-11-15T10:39:11;2.43;;;1.20;;
17596;SDS011;8917;50.942;6.946;2022-11-15T10:41:40;1.90;;;1.10;;
17596;SDS011;8917;50.942;6.946;2022-11-15T10:44:10;1.97;;;1.20;;
17596;SDS011;8917;50.942;6.946;2022-11-15T10:46:40;6.37;;;5.77;;
17596;SDS011;8917;50.942;6.946;2022-11-15T10:49:12;4.83;;;1.80;;
17596;SDS011;8917;50.942;6.946;2022-11-15T10:51:40;1.67;;;1.10;;
17596;SDS011;8917;50.942;6.946;2022-11-15T10:54:09;2.83;;;1.20;;
17596;SDS011;8917;50.942;6.946;2022-11-15T10:56:38;1.37;;;1.13;;
17596;SDS011;8917;50.942;6.946;2022-11-15T10:59:09;3.73;;;1.40;;
17596;SDS011;8917;50.942;6.946;2022-11-15T11:01:46;1.20;;;1.10;;
17596;SDS011;8917;50.942;6.946;2022-11-15T11:04:14;2.30;;;1.07;;
17596;SDS011;8917;50.942;6.946;2022-11-15T11:06:48;2.13;;;1.60;;
17596;SDS011;8917;50.942;6.946;2022-11-15T11:09:22;1.40;;;1.20;;
17596;SDS011;8917;50.942;6.946;2022-11-15T11:11:50;2.03;;;1.17;;
17596;SDS011;8917;50.942;6.946;2022-11-15T11:14:20;3.67;;;1.40;;
17596;SDS011;8917;50.942;6.946;2022-11-15T11:16:50;2.00;;;1.50;;
17596;SDS011;8917;50.942;6.946;2022-11-15T11:19:28;2.97;;;1.20;;
17596;SDS011;8917;50.942;6.946;2022-11-15T11:21:59;2.60;;;1.30;;
17596;SDS011;8917;50.942;6.946;2022-11-15T11:24:31;1.97;;;1.20;;
17596;SDS011;8917;50.942;6.946;2022-11-15T11:27:05;3.27;;;1.00;;
17596;SDS011;8917;50.942;6.946;2022-11-15T11:29:38;2.90;;;1.50;;
17596;SDS011;8917;50.942;6.946;2022-11-15T11:32:14;6.23;;;2.40;;
17596;SDS011;8917;50.942;6.946;2022-11-15T11:34:49;3.97;;;1.10;;
17596;SDS011;8917;50.942;6.946;2022-11-15T11:37:21;1.90;;;1.20;;
17596;SDS011;8917;50.942;6.946;2022-11-15T11:39:55;4.20;;;2.70;;
17596;SDS011;8917;50.942;6.946;2022-11-15T11:42:30;5.27;;;1.40;;
17596;SDS011;8917;50.942;6.946;2022-11-15T11:45:00;2.23;;;1.20;;
17596;SDS011;8917;50.942;6.946;2022-11-15T11:47:35;1.90;;;1.27;;
17596;SDS011;8917;50.942;6.946;2022-11-15T11:50:10;3.13;;;1.30;;
17596;SDS011;8917;50.942;6.946;2022-11-15T11:52:39;1.90;;;1.10;;
17596;SDS011;8917;50.942;6.946;2022-11-15T11:55:12;2.20;;;1.20;;
17596;SDS011;8917;50.942;6.946;2022-11-15T11:57:41;3.83;;;1.20;;
17596;SDS011;8917;50.942;6.946;2022-11-15T12:00:15;1.20;;;0.97;;
17596;SDS011;8917;50.942;6.946;2022-11-15T12:02:47;2.87;;;1.10;;
17596;SDS011;8917;50.942;6.946;2022-11-15T12:05:16;2.37;;;1.17;;
17596;SDS011;8917;50.942;6.946;2022-11-15T12:07:45;2.50;;;1.43;;
17596;SDS011;8917;50.942;6.946;2022-11-15T12:10:18;3.33;;;1.60;;
17596;SDS011;8917;50.942;6.946;2022-11-15T12:12:49;2.67;;;1.73;;
17596;SDS011;8917;50.942;6.946;2022-11-15T12:15:18;2.97;;;1.40;;
17596;SDS011;8917;50.942;6.946;2022-11-15T12:17:48;4.60;;;1.60;;
17596;SDS011;8917;50.942;6.946;2022-11-15T12:20:16;2.43;;;1.47;;
17596;SDS011;8917;50.942;6.946;2022-11-15T12:22:47;2.97;;;1.70;;
17596;SDS011;8917;50.942;6.946;2022-11-15T12:25:17;3.73;;;1.50;;
17596;SDS011;8917;50.942;6.946;2022-11-15T12:27:46;2.50;;;1.30;;
17596;SDS011;8917;50.942;6.946;2022-11-15T12:30:17;3.37;;;1.47;;
17596;SDS011;8917;50.942;6.946;2022-11-15T12:32:50;2.17;;;1.60;;
17596;SDS011;8917;50.942;6.946;2022-11-15T12:35:27;2.70;;;1.67;;
17596;SDS011;8917;50.942;6.946;2022-11-15T12:37:55;2.00;;;1.67;;
17596;SDS011;8917;50.942;6.946;2022-11-15T12:40:26;3.37;;;1.40;;
17596;SDS011;8917;50.942;6.946;2022-11-15T12:43:02;2.93;;;1.60;;
17596;SDS011;8917;50.942;6.946;2022-11-15T12:45:30;3.00;;;1.30;;
17596;SDS011;8917;50.942;6.946;2022-11-15T12:50:54;4.70;;;1.47;;
17596;SDS011;8917;50.942;6.946;2022-11-15T12:53:26;1.97;;;1.40;;
17596;SDS011;8917;50.942;6.946;2022-11-15T12:56:08;1.93;;;1.70;;
17596;SDS011;8917;50.942;6.946;2022-11-15T12:58:40;3.27;;;1.60;;
17596;SDS011;8917;50.942;6.946;2022-11-15T13:01:08;3.33;;;1.70;;
17596;SDS011;8917;50.942;6.946;2022-11-15T13:03:43;3.43;;;1.50;;
17596;SDS011;8917;50.942;6.946;2022-11-15T13:06:36;6.53;;;2.00;;
17596;SDS011;8917;50.942;6.946;2022-11-15T13:09:49;3.03;;;1.60;;
17596;SDS011;8917;50.942;6.946;2022-11-15T13:11:53;4.30;;;1.70;;
17596;SDS011;8917;50.942;6.946;2022-11-15T13:17:22;3.77;;;1.70;;
17596;SDS011;8917;50.942;6.946;2022-11-15T13:19:52;4.33;;;1.80;;
17596;SDS011;8917;50.942;6.946;2022-11-15T13:22:21;3.17;;;1.90;;
17596;SDS011;8917;50.942;6.946;2022-11-15T13:25:14;3.33;;;2.00;;
17596;SDS011;8917;50.942;6.946;2022-11-15T13:27:44;2.07;;;1.80;;
17596;SDS011;8917;50.942;6.946;2022-11-15T13:30:13;2.73;;;1.80;;
17596;SDS011;8917;50.942;6.946;2022-11-15T13:32:41;4.13;;;1.83;;
17596;SDS011;8917;50.942;6.946;2022-11-15T13:35:08;2.73;;;2.20;;
17596;SDS011;8917;50.942;6.946;2022-11-15T13:37:37;2.53;;;2.00;;
17596;SDS011;8917;50.942;6.946;2022-11-15T13:40:22;3.23;;;2.43;;
17596;SDS011;8917;50.942;6.946;2022-11-15T13:42:50;6.03;;;2.30;;
17596;SDS011;8917;50.942;6.946;2022-11-15T13:45:17;5.03;;;2.90;;
17596;SDS011;8917;50.942;6.946;2022-11-15T13:47:50;7.27;;;3.00;;
17596;SDS011;8917;50.942;6.946;2022-11-15T13:50:18;6.57;;;2.90;;
17596;SDS011;8917;50.942;6.946;2022-11-15T13:52:49;6.60;;;3.30;;
17596;SDS011;8917;50.942;6.946;2022-11-15T13:55:17;4.50;;;2.90;;
17596;SDS011;8917;50.942;6.946;2022-11-15T13:57:46;3.07;;;2.47;;
17596;SDS011;8917;50.942;6.946;2022-11-15T14:00:25;4.43;;;2.57;;
17596;SDS011;8917;50.942;6.946;2022-11-15T14:02:53;4.27;;;2.20;;
17596;SDS011;8917;50.942;6.946;2022-11-15T14:05:22;4.40;;;2.50;;
17596;SDS011;8917;50.942;6.946;2022-11-15T14:07:55;3.47;;;2.20;;
17596;SDS011;8917;50.942;6.946;2022-11-15T14:10:27;3.30;;;2.83;;
17596;SDS011;8917;50.942;6.946;2022-11-15T14:12:55;3.33;;;2.43;;
17596;SDS011;8917;50.942;6.946;2022-11-15T14:15:25;3.13;;;2.83;;
17596;SDS011;8917;50.942;6.946;2022-11-15T14:17:53;3.73;;;3.13;;
17596;SDS011;8917;50.942;6.946;2022-11-15T14:20:26;2.90;;;2.40;;
17596;SDS011;8917;50.942;6.946;2022-11-15T14:22:57;5.00;;;2.40;;
17596;SDS011;8917;50.942;6.946;2022-11-15T14:25:25;3.03;;;1.93;;
17596;SDS011;8917;50.942;6.946;2022-11-15T14:28:12;4.60;;;2.20;;
17596;SDS011;8917;50.942;6.946;2022-11-15T14:30:41;5.23;;;2.30;;
17596;SDS011;8917;50.942;6.946;2022-11-15T14:33:17;4.03;;;2.30;;
17596;SDS011;8917;50.942;6.946;2022-11-15T14:35:45;5.03;;;2.23;;
17596;SDS011;8917;50.942;6.946;2022-11-15T14:38:14;4.80;;;2.63;;
17596;SDS011;8917;50.942;6.946;2022-11-15T14:40:41;6.30;;;2.40;;
17596;SDS011;8917;50.942;6.946;2022-11-15T14:43:09;2.57;;;1.90;;
17596;SDS011;8917;50.942;6.946;2022-11-15T14:45:37;2.53;;;2.27;;
17596;SDS011;8917;50.942;6.946;2022-11-15T14:48:05;4.10;;;2.23;;
17596;SDS011;8917;50.942;6.946;2022-11-15T14:50:33;3.33;;;2.50;;
17596;SDS011;8917;50.942;6.946;2022-11-15T14:53:00;3.80;;;2.30;;
17596;SDS011;8917;50.942;6.946;2022-11-15T14:55:31;3.17;;;2.33;;
17596;SDS011;8917;50.942;6.946;2022-11-15T14:58:00;2.90;;;1.90;;
17596;SDS011;8917;50.942;6.946;2022-11-15T15:00:28;5.33;;;2.10;;
17596;SDS011;8917;50.942;6.946;2022-11-15T15:02:56;5.27;;;1.90;;
17596;SDS011;8917;50.942;6.946;2022-11-15T15:05:24;2.73;;;2.07;;
17596;SDS011;8917;50.942;6.946;2022-11-15T15:07:52;3.23;;;2.00;;
17596;SDS011;8917;50.942;6.946;2022-11-15T15:10:19;2.30;;;2.03;;
17596;SDS011;8917;50.942;6.946;2022-11-15T15:12:48;2.77;;;2.13;;
17596;SDS011;8917;50.942;6.946;2022-11-15T15:15:16;2.20;;;2.00;;
17596;SDS011;8917;50.942;6.946;2022-11-15T15:17:44;3.67;;;1.80;;
17596;SDS011;8917;50.942;6.946;2022-11-15T15:20:12;3.50;;;1.93;;
17596;SDS011;8917;50.942;6.946;2022-11-15T15:22:39;3.17;;;2.10;;